»·PEaware :: JZA691 CYYZ-CYQG

JZA691 :: CYYZ-CYQG

FLIGHT INFORMATION

Flight Status: Arrived
Operator:
Air Canada Jazz
More flights by this operator :: More flights under this callsign
Pilot: Thomas N. (7419)
Aircraft: SAAB 340
(SF34)
More flights by this aircraft type
Origin: CYYZ Toronto/Pearson Intl
Canada
Destination: CYQG Windsor
Canada
More flights between these airports :: More routes between these airports
Route: PEMBA2 DERLO AXXIS GOHMA3
File this flight plan on PilotEdge
Remarks:
Altitude:
(Current/Filed)
14,000ft
Speed:
(Current/Filed)
230kts
Departed: 04-Nov-15 01:33 PM
Arrived: 04-Nov-15 02:28 PM
Distance/Time
Traveled:
169nm/0:55
Distance/Time
To Go:
Arrived

Flight Plot

Page will automatically refresh every two minutes.


Map Options




Map Legend


Flown Route
Filed Route
Departure Airport
Arrival Airport
Navaid (VOR, NDB)
Fix

Horizontal Profiles

Position Reports

Time Latitude Longitude Heading Altitude Ground
Speed
04-Nov-15 13:24 43.683056 -79.615981 319 572ft 3kts
04-Nov-15 13:25 43.682414 -79.618248 191 572ft 12kts
04-Nov-15 13:26 43.679991 -79.619685 136 572ft 13kts
04-Nov-15 13:27 43.677206 -79.616758 138 572ft 12kts
04-Nov-15 13:28 43.674502 -79.616287 135 572ft 11kts
04-Nov-15 13:29 43.672471 -79.614275 227 572ft 0kts
04-Nov-15 13:30 43.671801 -79.615196 235 572ft 11kts
04-Nov-15 13:31 43.679994 -79.626545 317 600ft 130kts
04-Nov-15 13:32 43.715065 -79.672319 316 1195ft 205kts
04-Nov-15 13:33 43.762369 -79.713372 334 2229ft 203kts
04-Nov-15 13:34 43.811993 -79.746765 331 3410ft 198kts
04-Nov-15 13:35 43.835615 -79.820135 282 4618ft 228kts
04-Nov-15 13:36 43.799957 -79.868292 161 5830ft 222kts
04-Nov-15 13:37 43.743176 -79.834323 158 6953ft 227kts
04-Nov-15 13:38 43.680247 -79.802006 159 7002ft 251kts
04-Nov-15 13:39 43.613923 -79.769527 165 6998ft 256kts
04-Nov-15 13:40 43.557935 -79.814209 222 8036ft 241kts
04-Nov-15 13:41 43.508307 -79.874070 218 9122ft 235kts
04-Nov-15 13:42 43.458416 -79.931086 218 10216ft 230kts
04-Nov-15 13:43 43.409813 -79.986188 217 11312ft 224kts
04-Nov-15 13:44 43.362282 -80.039960 217 12412ft 218kts
04-Nov-15 13:45 43.315807 -80.092437 217 13512ft 214kts
04-Nov-15 13:46 43.286986 -80.164514 252 14000ft 240kts
04-Nov-15 13:47 43.267349 -80.255470 249 13995ft 253kts
04-Nov-15 13:48 43.245709 -80.347950 249 13992ft 255kts
04-Nov-15 13:49 43.227486 -80.425035 249 13990ft 255kts
04-Nov-15 13:50 43.205454 -80.517835 249 13990ft 255kts
04-Nov-15 13:51 43.183461 -80.610076 249 13990ft 254kts
04-Nov-15 13:52 43.161388 -80.702336 249 13988ft 255kts
04-Nov-15 13:53 43.139032 -80.795300 248 13984ft 258kts
04-Nov-15 13:54 43.116184 -80.889873 249 13981ft 263kts
04-Nov-15 13:55 43.093056 -80.985296 249 13981ft 265kts
04-Nov-15 13:56 43.069629 -81.081540 249 13981ft 266kts
04-Nov-15 13:57 43.045375 -81.176483 247 13979ft 266kts
04-Nov-15 13:58 43.020412 -81.271871 247 13979ft 266kts
04-Nov-15 13:59 42.995044 -81.368126 247 12929ft 266kts
04-Nov-15 14:00 42.971097 -81.458706 247 11405ft 245kts
04-Nov-15 14:01 42.948566 -81.543523 247 9902ft 233kts
04-Nov-15 14:02 42.926640 -81.625830 247 8397ft 229kts
04-Nov-15 14:03 42.904939 -81.707028 247 6898ft 227kts
04-Nov-15 14:04 42.883352 -81.787514 247 5399ft 225kts
04-Nov-15 14:05 42.861983 -81.866930 247 4005ft 217kts
04-Nov-15 14:06 42.843220 -81.936540 247 3943ft 178kts
04-Nov-15 14:07 42.827053 -81.997043 248 3947ft 164kts
04-Nov-15 14:08 42.812294 -82.055109 248 3949ft 159kts
04-Nov-15 14:09 42.797902 -82.111771 247 3950ft 158kts
04-Nov-15 14:10 42.783590 -82.168913 247 3958ft 167kts
04-Nov-15 14:11 42.767062 -82.233796 248 3953ft 190kts
04-Nov-15 14:12 42.749321 -82.303109 248 3951ft 196kts
04-Nov-15 14:13 42.731193 -82.373610 248 3951ft 197kts
04-Nov-15 14:14 42.712873 -82.444615 248 3954ft 199kts
04-Nov-15 14:15 42.694479 -82.515690 248 3957ft 200kts
04-Nov-15 14:16 42.669223 -82.581221 205 3816ft 201kts
04-Nov-15 14:17 42.616672 -82.607855 202 3272ft 201kts
04-Nov-15 14:18 42.565134 -82.638918 202 3250ft 203kts
04-Nov-15 14:19 42.513503 -82.670164 202 3251ft 203kts
04-Nov-15 14:20 42.461958 -82.701556 203 3253ft 202kts
04-Nov-15 14:21 42.410937 -82.732847 203 3256ft 200kts
04-Nov-15 14:22 42.359134 -82.764205 203 2887ft 212kts
04-Nov-15 14:23 42.329064 -82.827277 242 2456ft 167kts
04-Nov-15 14:24 42.311693 -82.872665 239 1787ft 117kts
04-Nov-15 14:25 42.294176 -82.917609 239 1095ft 133kts
04-Nov-15 14:26 42.279083 -82.956116 248 627ft 39kts
04-Nov-15 14:27 42.274529 -82.960685 196 627ft 17kts
04-Nov-15 14:28 42.270129 -82.962345 196 627ft 15kts
04-Nov-15 14:29 42.266896 -82.960561 175 627ft 8kts

Navigation Log

Ident Type
Flight plan parsing failed, navigation log unavailable